Language: 


Des rapports , des résumés tant et plus, au choix de chacun....


Données statistiques de la station
Quotidien Rapport Février 8, 2017 Unités:  Anglais    Métrique   les deux
« Précédent Jour
Suivant Jour »
Quotidien Hebdomadaire Mensuel Annuel Actuel
  Haut: Bas: Moyen:
Température: 43.2 °F 36.9 °F 39.9 °F
Pt de rosée: 42.6 °F 36.1 °F 39.2 °F
Humidité: 98 % 96 % 97 %
Vitesse du vent: 13 mph 0 mph 5.2 mph
Rafales: 13.2 mph - -
Vent:- - West
Pression: 30.3 in 0 in -
Précipitation: 0 in    
Historical Graphs
 
 
Données statistiques pour Février 8, 2017
Heure Température Point de rosée Pression Vent Vitesse du vent Refales Humidité Pluie (taux horaire)
00:00 43.2 °F 42.6 °F 30 in WNW 2.5 mph 3.6 mph 98 % 0.01 in
00:05 43.2 °F 42.6 °F 30 in Calm   2.7 mph 98 % 0.01 in
00:10 43.2 °F 42.6 °F 30 in Calm   2.7 mph 98 % 0.01 in
00:15 43.2 °F 42.6 °F 30 in NNW 2.5 mph 4.5 mph 98 % 0.01 in
00:20 43.2 °F 42.6 °F 30 in Calm   4.5 mph 98 % 0.01 in
00:25 43.2 °F 42.6 °F 30 in Calm   3.8 mph 98 % 0.01 in
00:30 43.2 °F 42.6 °F 30 in North 5.4 mph 5.4 mph 98 % 0.01 in
00:35 43.2 °F 42.6 °F 30 in Calm   5.4 mph 98 % 0.01 in
00:40 43 °F 42.4 °F 30 in Calm   5.4 mph 98 % 0.01 in
00:45 43 °F 42.4 °F 30 in Calm   4.3 mph 98 % 0 in
00:50 43 °F 42.4 °F 30 in NW 3.6 mph 4.3 mph 98 % 0 in
00:55 43 °F 42.4 °F 30 in North 5.6 mph 5.6 mph 98 % 0 in
01:00 42.8 °F 42.3 °F 30 in North 3.8 mph 6 mph 98 % 0 in
01:05 42.8 °F 42.3 °F 30 in WNW 4.7 mph 6 mph 98 % 0 in
01:10 42.8 °F 42.3 °F 30 in NNW 4 mph 4.9 mph 98 % 0 in
01:15 42.8 °F 42.3 °F 30 in NW 4 mph 4.7 mph 98 % 0 in
01:20 42.8 °F 42.3 °F 30 in Calm   4.3 mph 98 % 0 in
01:25 42.8 °F 42.3 °F 30 in NNE 2.5 mph 4 mph 98 % 0 in
01:30 42.8 °F 42.3 °F 30 in NNW 3.4 mph 4 mph 98 % 0 in
01:35 42.8 °F 42.3 °F 30 in North 5.4 mph 5.4 mph 98 % 0 in
01:40 42.8 °F 42.3 °F 30 in NNW 2.9 mph 5.4 mph 98 % 0 in
01:45 42.8 °F 42.3 °F 30 in NW 2.9 mph 5.4 mph 98 % 0 in
01:50 42.8 °F 42.3 °F 30 in North 2.2 mph 3.6 mph 98 % 0 in
01:55 42.6 °F 42.1 °F 30 in Calm   2.9 mph 98 % 0 in
02:02 42.6 °F 42.1 °F 0 in NW 1.3 mph 4.7 mph 98 % 0 in
02:07 42.6 °F 42.1 °F 30 in North 3.4 mph 4.7 mph 98 % 0 in
02:12 42.4 °F 41.9 °F 30 in NNW 3.6 mph 3.6 mph 98 % 0 in
02:17 42.4 °F 41.9 °F 30 in North 4 mph 4 mph 98 % 0 in
02:22 42.4 °F 41.9 °F 30 in Calm   4 mph 98 % 0 in
02:27 42.3 °F 41.7 °F 30 in NNW 2.2 mph 3.6 mph 98 % 0 in
02:32 42.3 °F 41.7 °F 30 in WNW 2.7 mph 5.6 mph 98 % 0 in
02:37 42.3 °F 41.7 °F 30 in North 2 mph 5.6 mph 98 % 0 in
02:42 42.4 °F 41.9 °F 30 in West 2.5 mph 3.8 mph 98 % 0 in
02:47 42.4 °F 41.9 °F 30 in NE 4 mph 4.3 mph 98 % 0 in
02:52 42.4 °F 41.9 °F 30 in North 3.4 mph 5.8 mph 98 % 0 in
02:57 42.4 °F 41.9 °F 30 in North 0.9 mph 5.8 mph 98 % 0 in
03:02 42.4 °F 41.9 °F 30 in NW 2.7 mph 4 mph 98 % 0 in
03:07 42.4 °F 41.9 °F 30.1 in Calm   4 mph 98 % 0 in
03:12 42.4 °F 41.9 °F 30.1 in Calm   4 mph 98 % 0 in
03:17 42.4 °F 41.9 °F 30.1 in NW 3.6 mph 5.4 mph 98 % 0 in
03:22 42.4 °F 41.9 °F 30 in North 3.6 mph 5.8 mph 98 % 0 in
03:27 42.4 °F 41.9 °F 30 in WNW 3.8 mph 5.8 mph 98 % 0 in
03:32 42.6 °F 42.1 °F 30 in NNW 2 mph 5.8 mph 98 % 0 in
03:37 42.6 °F 42.1 °F 30 in NW 3.1 mph 5.4 mph 98 % 0 in
03:42 42.6 °F 42.1 °F 30 in North 3.8 mph 4 mph 98 % 0 in
03:47 42.6 °F 42.1 °F 30 in North 3.4 mph 4 mph 98 % 0 in
03:52 42.6 °F 42.1 °F 30 in NNW 4.3 mph 7.8 mph 98 % 0 in
03:57 42.6 °F 42.1 °F 30 in NNW 5.6 mph 7.8 mph 98 % 0 in
04:02 42.4 °F 41.9 °F 30 in North 7.8 mph 7.8 mph 98 % 0 in
04:07 42.4 °F 41.9 °F 30 in North 4.9 mph 8.1 mph 98 % 0 in
04:12 42.4 °F 41.9 °F 30 in North 3.8 mph 8.1 mph 98 % 0 in
04:17 42.4 °F 41.9 °F 30 in NNW 7.2 mph 8.1 mph 98 % 0 in
04:22 42.3 °F 41.7 °F 30 in North 6 mph 9.8 mph 98 % 0 in
04:27 42.3 °F 41.7 °F 30 in North 3.1 mph 9.8 mph 98 % 0 in
04:32 42.3 °F 41.7 °F 30 in North 5.6 mph 8.1 mph 98 % 0 in
04:37 42.1 °F 41.5 °F 30.1 in North 4 mph 8.1 mph 98 % 0 in
04:42 42.1 °F 41.5 °F 30.1 in North 4.7 mph 7.4 mph 98 % 0 in
04:47 42.1 °F 41.5 °F 30.1 in NNE 3.8 mph 7.2 mph 98 % 0 in
04:52 42.1 °F 41.5 °F 30 in North 6 mph 7.2 mph 98 % 0 in
04:57 42.1 °F 41.5 °F 30 in NNW 4.3 mph 7.8 mph 98 % 0 in
05:02 42.1 °F 41.5 °F 30 in NNW 5.4 mph 7.8 mph 98 % 0 in
05:07 42.1 °F 41.5 °F 30.1 in North 7.2 mph 8.1 mph 98 % 0 in
05:12 41.9 °F 41.4 °F 30.1 in NNE 6.7 mph 8.1 mph 98 % 0 in
05:17 41.9 °F 41.4 °F 30.1 in North 6.5 mph 10.7 mph 98 % 0 in
05:22 41.9 °F 41.4 °F 30.1 in North 3.4 mph 10.7 mph 98 % 0 in
05:27 41.9 °F 41.4 °F 30.1 in NNE 5.8 mph 9.4 mph 98 % 0 in
05:32 41.9 °F 41.4 °F 30.1 in North 3.6 mph 9.4 mph 98 % 0 in
05:37 41.9 °F 41.4 °F 30.1 in North 3.6 mph 7.2 mph 98 % 0 in
05:42 41.7 °F 41.2 °F 30.1 in North 6 mph 7.4 mph 98 % 0 in
05:47 41.5 °F 41 °F 30.1 in NNE 6.3 mph 7.6 mph 98 % 0 in
05:52 41.5 °F 41 °F 30.1 in NNE 3.8 mph 8.7 mph 98 % 0 in
05:57 41.5 °F 41 °F 30.1 in NNW 4.3 mph 8.7 mph 98 % 0 in
06:02 41.5 °F 41 °F 30.1 in North 2.9 mph 7.2 mph 98 % 0 in
06:07 41.5 °F 41 °F 30.1 in NNE 1.3 mph 6.3 mph 98 % 0 in
06:12 41.5 °F 41 °F 30.1 in North 3.1 mph 7.6 mph 98 % 0 in
06:17 41.4 °F 40.8 °F 30.1 in NNW 5.4 mph 7.6 mph 98 % 0 in
06:22 41.4 °F 40.8 °F 30.1 in North 6 mph 7.8 mph 98 % 0 in
06:27 41.4 °F 40.8 °F 30.1 in NW 3.8 mph 7.8 mph 98 % 0 in
06:32 41.2 °F 40.6 °F 30.1 in North 3.4 mph 8.7 mph 98 % 0 in
06:37 41 °F 40.5 °F 30.1 in North 4 mph 10.1 mph 98 % 0 in
06:42 41 °F 40.5 °F 30.1 in WNW 4.9 mph 10.1 mph 98 % 0 in
06:47 41 °F 40.5 °F 30.1 in NNE 2.7 mph 6.3 mph 98 % 0 in
06:52 41 °F 40.5 °F 30.1 in NNW 2.7 mph 6.3 mph 98 % 0 in
06:57 41 °F 40.5 °F 30.1 in North 5.8 mph 8.5 mph 98 % 0 in
07:02 40.8 °F 40.3 °F 30.1 in NNW 2.9 mph 8.5 mph 98 % 0 in
07:07 40.8 °F 40.3 °F 30.1 in NNE 3.1 mph 8.5 mph 98 % 0 in
07:12 40.8 °F 40.3 °F 30.1 in North 2.9 mph 6.9 mph 98 % 0 in
07:17 40.6 °F 40.1 °F 30.1 in North 9.6 mph 9.6 mph 98 % 0 in
07:22 40.6 °F 40.1 °F 30.1 in NNE 6.3 mph 9.6 mph 98 % 0 in
07:27 40.6 °F 40.1 °F 30.1 in NNE 3.6 mph 10.1 mph 98 % 0 in
07:32 40.5 °F 39.9 °F 30.1 in North 8.9 mph 11.9 mph 98 % 0 in
07:37 40.5 °F 39.9 °F 30.1 in NNE 7.4 mph 11.9 mph 98 % 0 in
07:42 40.5 °F 39.9 °F 30.1 in North 5.8 mph 10.1 mph 98 % 0 in
07:47 40.5 °F 39.9 °F 30.1 in North 7.6 mph 10.1 mph 98 % 0 in
07:52 40.3 °F 39.7 °F 30.1 in NNW 3.6 mph 7.6 mph 98 % 0 in
07:57 40.3 °F 39.7 °F 30.1 in NNW 4.9 mph 7.6 mph 98 % 0 in
08:02 40.3 °F 39.7 °F 30.1 in NNW 3.8 mph 7.4 mph 98 % 0 in
08:07 40.3 °F 39.7 °F 30.2 in North 5.6 mph 8.5 mph 98 % 0 in
08:12 40.3 °F 39.7 °F 30.2 in North 6.3 mph 8.5 mph 98 % 0 in
08:17 40.3 °F 39.7 °F 30.2 in North 5.6 mph 8.5 mph 98 % 0 in
08:22 40.1 °F 39.6 °F 30.2 in North 7.6 mph 7.8 mph 98 % 0 in
08:27 40.1 °F 39.6 °F 30.2 in NNW 7.8 mph 8.7 mph 98 % 0 in
08:32 40.1 °F 39.6 °F 30.2 in North 4 mph 8.7 mph 98 % 0 in
08:37 40.1 °F 39.6 °F 30.2 in NNW 9.8 mph 10.1 mph 98 % 0 in
08:42 40.1 °F 39.6 °F 30.2 in North 5.6 mph 10.1 mph 98 % 0 in
08:47 39.9 °F 39.4 °F 30.2 in NNW 4.9 mph 9.8 mph 98 % 0 in
08:52 39.9 °F 39.4 °F 30.1 in North 7.2 mph 9.8 mph 98 % 0 in
08:57 39.9 °F 39.4 °F 30.1 in NNE 5.6 mph 9.8 mph 98 % 0 in
09:02 39.9 °F 39.4 °F 30.1 in NNE 5.8 mph 9.8 mph 98 % 0 in
09:07 39.7 °F 39.2 °F 30.2 in North 7.8 mph 11 mph 98 % 0 in
09:12 39.7 °F 39.2 °F 30.2 in NNE 4.9 mph 11 mph 98 % 0 in
09:17 39.7 °F 39.2 °F 30.2 in NNE 6.3 mph 9.8 mph 98 % 0 in
09:22 39.9 °F 39.4 °F 30.2 in North 8.1 mph 8.9 mph 98 % 0 in
09:27 39.7 °F 39.2 °F 30.2 in NNW 5.4 mph 8.5 mph 98 % 0 in
09:32 39.7 °F 39.2 °F 30.2 in North 6.3 mph 8.5 mph 98 % 0 in
09:37 39.7 °F 39.2 °F 30.2 in North 8.1 mph 9.8 mph 98 % 0 in
09:42 39.7 °F 39.2 °F 30.2 in NNE 6 mph 9.8 mph 98 % 0 in
09:47 39.9 °F 39.4 °F 30.2 in NE 5.6 mph 8.1 mph 98 % 0 in
09:52 39.9 °F 39.4 °F 30.2 in NNE 1.6 mph 6.5 mph 98 % 0 in
09:57 39.9 °F 39.4 °F 30.2 in NNE 7.4 mph 7.8 mph 98 % 0 in
10:02 39.9 °F 39.4 °F 30.2 in North 8.5 mph 8.5 mph 98 % 0 in
10:07 39.9 °F 39.4 °F 30.2 in NNE 4 mph 8.7 mph 98 % 0 in
10:12 39.9 °F 39.4 °F 30.2 in NNE 5.6 mph 8.7 mph 98 % 0 in
10:17 39.9 °F 39.4 °F 30.2 in North 4.9 mph 9.6 mph 98 % 0 in
10:22 39.9 °F 39.4 °F 30.2 in North 7.4 mph 9.6 mph 98 % 0 in
10:27 39.9 °F 39.4 °F 30.2 in NNE 4.3 mph 8.7 mph 98 % 0 in
10:32 39.9 °F 39.4 °F 30.2 in North 6 mph 8.7 mph 98 % 0 in
10:37 40.1 °F 39.6 °F 30.2 in North 6 mph 8.5 mph 98 % 0 in
10:42 40.1 °F 39.6 °F 30.2 in NNW 6.3 mph 9.6 mph 98 % 0 in
10:47 40.1 °F 39.6 °F 30.2 in North 5.6 mph 9.6 mph 98 % 0 in
10:52 40.1 °F 39.6 °F 30.2 in North 5.4 mph 9.6 mph 98 % 0 in
10:57 40.1 °F 39.6 °F 30.2 in North 9.6 mph 9.6 mph 98 % 0 in
11:02 40.1 °F 39.6 °F 30.2 in North 5.6 mph 9.6 mph 98 % 0 in
11:07 40.1 °F 39.6 °F 30.2 in North 3.8 mph 9.6 mph 98 % 0 in
11:12 40.1 °F 39.6 °F 30.2 in North 3.8 mph 8.7 mph 98 % 0 in
11:17 39.9 °F 39.4 °F 30.2 in North 8.7 mph 8.7 mph 98 % 0 in
11:22 39.9 °F 39.4 °F 30.2 in North 3.4 mph 9.6 mph 98 % 0 in
11:27 39.9 °F 39.4 °F 30.2 in NNE 6 mph 10.7 mph 98 % 0 in
11:32 39.9 °F 39.4 °F 30.2 in North 4.3 mph 10.7 mph 98 % 0 in
11:37 39.9 °F 39.4 °F 30.2 in NNE 5.4 mph 10.7 mph 98 % 0 in
11:42 39.9 °F 39.4 °F 30.2 in North 8.1 mph 9.6 mph 98 % 0 in
11:47 39.9 °F 39.4 °F 30.2 in North 8.5 mph 10.1 mph 98 % 0 in
11:52 39.9 °F 39.4 °F 30.2 in NE 6.3 mph 10.1 mph 98 % 0 in
11:57 39.9 °F 39.4 °F 30.2 in NE 8.5 mph 9.8 mph 98 % 0 in
12:02 39.7 °F 39.2 °F 30.2 in NNE 5.8 mph 10.1 mph 98 % 0 in
12:07 39.7 °F 39.2 °F 30.2 in NNE 3.4 mph 10.1 mph 98 % 0 in
12:12 39.9 °F 39.4 °F 30.2 in NNW 11 mph 11 mph 98 % 0 in
12:17 39.7 °F 39.2 °F 30.2 in North 13 mph 13 mph 98 % 0 in
12:22 39.9 °F 39.4 °F 30.2 in NE 6.7 mph 13 mph 98 % 0 in
12:27 40.1 °F 39.6 °F 30.2 in North 8.7 mph 10.5 mph 98 % 0 in
12:32 39.9 °F 39.4 °F 30.2 in North 7.6 mph 10.5 mph 98 % 0 in
12:37 40.1 °F 39.6 °F 30.2 in North 7.4 mph 11 mph 98 % 0 in
12:42 39.9 °F 39.2 °F 30.2 in North 5.6 mph 11 mph 97 % 0 in
12:47 39.9 °F 39.2 °F 30.2 in North 7.8 mph 11 mph 97 % 0 in
12:52 39.9 °F 39.2 °F 30.2 in NNW 9.8 mph 12.5 mph 97 % 0 in
12:57 39.7 °F 39 °F 30.2 in NE 5.6 mph 12.5 mph 97 % 0 in
13:02 39.7 °F 39 °F 30.2 in North 5.6 mph 12.5 mph 97 % 0 in
13:07 39.7 °F 39 °F 30.2 in North 5.8 mph 12.1 mph 97 % 0 in
13:12 39.6 °F 38.8 °F 30.2 in NE 8.1 mph 12.5 mph 97 % 0 in
13:17 39.6 °F 38.8 °F 30.2 in NNE 10.7 mph 12.5 mph 97 % 0 in
13:22 39.4 °F 38.7 °F 30.2 in North 6 mph 11 mph 97 % 0 in
13:27 39.4 °F 38.7 °F 30.2 in NNE 4.3 mph 11 mph 97 % 0 in
13:32 39.4 °F 38.7 °F 30.2 in North 6.3 mph 10.7 mph 97 % 0 in
13:37 39.4 °F 38.7 °F 30.2 in NNE 7.6 mph 12.1 mph 97 % 0 in
13:42 39.6 °F 38.8 °F 30.2 in NE 5.6 mph 12.1 mph 97 % 0 in
13:47 39.4 °F 38.7 °F 30.2 in NNE 6.3 mph 11 mph 97 % 0 in
13:52 39.6 °F 38.8 °F 30.2 in North 8.9 mph 11 mph 97 % 0 in
13:57 39.4 °F 38.7 °F 30.2 in North 9.8 mph 10.7 mph 97 % 0 in
14:02 39.6 °F 38.8 °F 30.2 in North 5.4 mph 11 mph 97 % 0 in
14:07 39.6 °F 38.8 °F 30.2 in North 7.2 mph 11 mph 97 % 0 in
14:12 39.6 °F 38.8 °F 30.2 in North 5.6 mph 10.3 mph 97 % 0 in
14:17 39.6 °F 38.8 °F 30.2 in North 4.9 mph 8.7 mph 97 % 0 in
14:22 39.4 °F 38.7 °F 30.2 in North 5.4 mph 8.9 mph 97 % 0 in
14:27 39.4 °F 38.7 °F 30.2 in North 6.3 mph 10.7 mph 97 % 0 in
14:32 39.4 °F 38.7 °F 30.2 in North 6.3 mph 10.7 mph 97 % 0 in
14:37 39.4 °F 38.7 °F 30.2 in NNE 7.4 mph 7.4 mph 97 % 0 in
14:42 39.2 °F 38.5 °F 30.2 in North 7.8 mph 10.3 mph 97 % 0 in
14:47 39 °F 38.3 °F 30.2 in North 4.3 mph 11 mph 97 % 0 in
14:52 39 °F 38.3 °F 30.2 in NNW 3.4 mph 12.1 mph 97 % 0 in
14:57 39 °F 38.3 °F 30.2 in North 7.4 mph 12.1 mph 97 % 0 in
15:02 39 °F 38.3 °F 30.2 in North 10.3 mph 12.5 mph 97 % 0 in
15:07 39 °F 38.3 °F 30.2 in NE 5.8 mph 12.5 mph 97 % 0 in
15:12 39.2 °F 38.5 °F 30.2 in North 6.5 mph 10.3 mph 97 % 0 in
15:17 39 °F 38.3 °F 30.2 in NE 3.6 mph 11.4 mph 97 % 0 in
15:22 39.2 °F 38.5 °F 30.2 in NW 3.8 mph 11.4 mph 97 % 0 in
15:27 39.2 °F 38.5 °F 30.2 in North 2.9 mph 7.6 mph 97 % 0 in
15:32 39 °F 38.3 °F 30.2 in NE 5.6 mph 7.6 mph 97 % 0 in
15:37 38.8 °F 38.1 °F 30.2 in North 6.5 mph 9.2 mph 97 % 0 in
15:42 38.8 °F 38.1 °F 30.2 in North 5.6 mph 9.2 mph 97 % 0 in
15:47 38.8 °F 38.1 °F 30.2 in North 6 mph 8.9 mph 97 % 0 in
15:52 38.8 °F 38.1 °F 30.2 in North 4.9 mph 6.9 mph 97 % 0 in
15:57 38.8 °F 38.1 °F 30.2 in North 6.5 mph 7.8 mph 97 % 0 in
16:02 38.8 °F 38.1 °F 30.2 in North 3.6 mph 7.8 mph 97 % 0 in
16:07 38.8 °F 38.1 °F 30.2 in North 6 mph 7.8 mph 97 % 0 in
16:12 38.8 °F 38.1 °F 30.2 in North 4.3 mph 7.8 mph 97 % 0 in
16:17 38.8 °F 38.1 °F 30.2 in NW 2.7 mph 6.7 mph 97 % 0 in
16:22 38.8 °F 38.1 °F 30.2 in North 4.3 mph 6.7 mph 97 % 0 in
16:27 38.8 °F 38.1 °F 30.2 in Calm   6.3 mph 97 % 0 in
16:32 38.8 °F 38.1 °F 30.2 in North 3.4 mph 6.3 mph 97 % 0 in
16:37 38.8 °F 38.1 °F 30.3 in NNW 3.6 mph 6.3 mph 97 % 0 in
16:42 38.8 °F 38.1 °F 30.3 in North 3.4 mph 8.5 mph 97 % 0 in
16:47 39 °F 38.3 °F 30.3 in North 5.8 mph 8.5 mph 97 % 0 in
16:52 39 °F 38.3 °F 30.3 in North 4.3 mph 8.1 mph 97 % 0 in
16:57 39 °F 37.9 °F 30.3 in North 6.3 mph 8.1 mph 96 % 0 in
17:02 38.8 °F 38.1 °F 30.3 in North 7.6 mph 9.8 mph 97 % 0 in
17:07 38.8 °F 37.8 °F 30.3 in NE 5.6 mph 9.8 mph 96 % 0 in
17:12 38.8 °F 37.8 °F 30.3 in North 3.6 mph 8.9 mph 96 % 0 in
17:17 38.8 °F 37.8 °F 30.3 in NNE 4 mph 8.7 mph 96 % 0 in
17:22 38.8 °F 37.8 °F 30.3 in NW 4.7 mph 8.5 mph 96 % 0 in
17:27 38.7 °F 37.8 °F 30.3 in NNW 5.6 mph 8.5 mph 96 % 0 in
17:32 38.7 °F 37.8 °F 30.3 in NNW 5.6 mph 8.1 mph 96 % 0 in
17:37 38.7 °F 37.8 °F 30.2 in North 2.9 mph 8.5 mph 96 % 0 in
17:42 38.7 °F 37.8 °F 30.2 in North 2.9 mph 8.5 mph 96 % 0 in
17:47 38.5 °F 37.6 °F 30.2 in North 7.4 mph 12.3 mph 96 % 0 in
17:52 38.5 °F 37.6 °F 30.3 in North 4.7 mph 12.3 mph 96 % 0 in
17:57 38.5 °F 37.6 °F 30.3 in NNW 3.1 mph 9.8 mph 96 % 0 in
18:02 38.5 °F 37.2 °F 30.3 in North 5.4 mph 9.6 mph 96 % 0 in
18:07 38.5 °F 37.2 °F 30.3 in NNE 3.6 mph 9.6 mph 96 % 0 in
18:12 38.5 °F 37.2 °F 30.3 in North 5.6 mph 8.5 mph 96 % 0 in
18:17 38.1 °F 37 °F 30.3 in North 6.3 mph 13 mph 96 % 0 in
18:22 38.1 °F 37 °F 30.3 in NNW 10.3 mph 13 mph 96 % 0 in
18:27 38.1 °F 37 °F 30.3 in NNW 5.8 mph 11 mph 96 % 0 in
18:32 37.9 °F 37.2 °F 30.3 in NNW 7.8 mph 11 mph 97 % 0 in
18:37 37.9 °F 37.2 °F 30.3 in North 7.4 mph 9.8 mph 97 % 0 in
18:42 37.9 °F 37.2 °F 30.3 in NNW 7.4 mph 12.1 mph 97 % 0 in
18:47 37.9 °F 37.2 °F 30.3 in North 4 mph 12.1 mph 97 % 0 in
18:52 37.9 °F 37.2 °F 30.3 in North 5.8 mph 10.1 mph 97 % 0 in
18:57 37.9 °F 37.2 °F 30.3 in NNE 5.4 mph 10.1 mph 97 % 0 in
18:58 37.9 °F 37.2 °F 30.3 in North 6 mph 10.1 mph 97 % 0 in
19:03 37.9 °F 37.2 °F 30.3 in North 8.1 mph 12.5 mph 97 % 0 in
19:08 37.9 °F 37.2 °F 30.3 in North 4 mph 12.5 mph 97 % 0 in
19:13 37.9 °F 37.2 °F 30.3 in North 6.5 mph 12.3 mph 97 % 0 in
19:18 37.9 °F 37.2 °F 30.3 in NE 5.6 mph 8.5 mph 97 % 0 in
19:23 37.9 °F 37.2 °F 30.3 in North 6 mph 7.6 mph 97 % 0 in
19:28 37.9 °F 37.2 °F 30.3 in NNE 6 mph 8.9 mph 97 % 0 in
19:33 37.9 °F 37.2 °F 30.3 in North 8.9 mph 8.9 mph 97 % 0 in
19:38 37.9 °F 37.2 °F 30.3 in North 8.7 mph 9.4 mph 97 % 0 in
19:43 37.9 °F 37.2 °F 30.3 in NNE 7.6 mph 9.4 mph 97 % 0 in
19:48 37.9 °F 37.2 °F 30.3 in North 6 mph 8.7 mph 97 % 0 in
19:53 37.9 °F 37.2 °F 30.3 in North 6.5 mph 10.7 mph 97 % 0 in
19:58 37.8 °F 37 °F 30.3 in North 6 mph 10.7 mph 97 % 0 in
20:03 37.8 °F 37 °F 30.3 in North 5.6 mph 10.7 mph 97 % 0 in
20:08 37.8 °F 37 °F 30.3 in NNW 8.5 mph 10.7 mph 97 % 0 in
20:13 37.8 °F 37 °F 30.3 in NNE 4.3 mph 13.2 mph 97 % 0 in
20:18 37.8 °F 36.9 °F 30.3 in North 7.6 mph 10.3 mph 96 % 0 in
20:23 37.8 °F 36.9 °F 30.3 in North 7.6 mph 10.3 mph 96 % 0 in
20:28 37.8 °F 36.9 °F 30.3 in North 6 mph 10.1 mph 96 % 0 in
20:33 37.8 °F 36.9 °F 30.3 in NNE 3.6 mph 10.1 mph 96 % 0 in
20:38 37.8 °F 36.9 °F 30.3 in NNW 2.9 mph 8.7 mph 96 % 0 in
20:43 37.8 °F 36.9 °F 30.3 in North 5.4 mph 8.7 mph 96 % 0 in
20:48 37.8 °F 36.9 °F 30.3 in North 4.5 mph 9.6 mph 96 % 0 in
20:53 37.8 °F 36.9 °F 30.3 in North 4 mph 9.6 mph 96 % 0 in
20:58 37.8 °F 36.9 °F 30.3 in North 5.6 mph 8.9 mph 96 % 0 in
21:03 37.6 °F 36.7 °F 30.3 in North 6.3 mph 8.9 mph 96 % 0 in
21:08 37.6 °F 36.7 °F 30.3 in NNE 8.1 mph 11 mph 96 % 0 in
21:13 37.6 °F 36.7 °F 30.3 in North 7.8 mph 11 mph 96 % 0 in
21:18 37.6 °F 36.3 °F 30.3 in NNE 4.7 mph 11 mph 96 % 0 in
21:23 37.6 °F 36.3 °F 30.3 in North 5.4 mph 8.7 mph 96 % 0 in
21:28 37.6 °F 36.3 °F 30.3 in NW 8.1 mph 8.7 mph 96 % 0 in
21:33 37.6 °F 36.3 °F 30.3 in North 4.3 mph 8.9 mph 96 % 0 in
21:38 37.6 °F 36.3 °F 30.3 in NNE 4.9 mph 8.9 mph 96 % 0 in
21:43 37.6 °F 36.3 °F 30.3 in North 6.3 mph 8.1 mph 96 % 0 in
21:48 37.6 °F 36.3 °F 30.3 in North 5.4 mph 9.6 mph 96 % 0 in
21:53 37.2 °F 36.3 °F 30.3 in North 6 mph 9.6 mph 96 % 0 in
21:58 37.2 °F 36.3 °F 30.3 in North 7.4 mph 9.2 mph 96 % 0 in
22:03 37.2 °F 36.3 °F 30.3 in North 5.4 mph 8.7 mph 96 % 0 in
22:08 37.2 °F 36.3 °F 30.3 in North 8.5 mph 10.1 mph 96 % 0 in
22:13 37.2 °F 36.3 °F 30.3 in North 7.6 mph 10.1 mph 96 % 0 in
22:18 37.2 °F 36.3 °F 30.3 in NNE 5.8 mph 9.2 mph 96 % 0 in
22:23 37.2 °F 36.3 °F 30.3 in NNE 6.5 mph 8.5 mph 96 % 0 in
22:28 37.2 °F 36.3 °F 30.3 in NNW 6.3 mph 8.7 mph 96 % 0 in
22:33 37.2 °F 36.3 °F 30.3 in North 4.9 mph 9.8 mph 96 % 0 in
22:38 37.2 °F 36.3 °F 30.3 in North 3.1 mph 11 mph 96 % 0 in
22:43 37 °F 36.3 °F 30.3 in North 6 mph 11 mph 97 % 0 in
22:48 37 °F 36.3 °F 30.3 in NNE 3.4 mph 8.7 mph 97 % 0 in
22:53 37 °F 36.3 °F 30.3 in NNW 3.4 mph 8.5 mph 97 % 0 in
22:58 37 °F 36.3 °F 30.3 in North 4.7 mph 7.8 mph 97 % 0 in
23:03 37 °F 36.3 °F 30.3 in North 5.4 mph 7.8 mph 97 % 0 in
23:08 37 °F 36.3 °F 30.3 in North 5.6 mph 8.1 mph 97 % 0 in
23:13 37 °F 36.3 °F 30.3 in NNE 5.6 mph 8.1 mph 97 % 0 in
23:18 37 °F 36.3 °F 30.3 in NNE 3.8 mph 6.5 mph 97 % 0 in
23:23 37 °F 36.3 °F 30.3 in North 4.3 mph 6.3 mph 97 % 0 in
23:28 37 °F 36.3 °F 30.3 in NNE 6.3 mph 6.3 mph 97 % 0 in
23:33 36.9 °F 36.1 °F 30.3 in North 6.9 mph 8.5 mph 97 % 0 in
23:38 36.9 °F 36.1 °F 30.3 in NE 7.4 mph 8.5 mph 97 % 0 in
23:43 36.9 °F 36.1 °F 30.3 in North 4.3 mph 7.6 mph 97 % 0 in
23:48 36.9 °F 36.1 °F 30.3 in North 6 mph 7.4 mph 97 % 0 in
23:53 36.9 °F 36.1 °F 30.3 in NE 4 mph 8.5 mph 97 % 0 in
23:58 36.9 °F 36.1 °F 30.3 in NNE 3.8 mph 8.5 mph 97 % 0 in
Le Gheer Warneton
Courtoisie de Weather Underground - 2.25 mb

Mise a jour : 17-12-17 07:20:13
Généré par Cumulus 1.9.4 (1099)